Time,TemperatureF,DewpointF,PressureIn,WindDirection,WindDirectionDegrees,WindSpeedMPH,WindSpeedGustMPH,Humidity,HourlyPrecipIn,Conditions,Clouds,dailyrainin,SoftwareType,DateUTC
2013-05-06 00:01:00,43.4,42.4,30.25,SW,234,0.0,0.0,96,0.00,n/a,n/a,-99.99,Henriksen +1-Wire,2013-05-06 04:01:00,
2013-05-06 00:02:00,43.3,42.4,30.25,West,268,0.0,0.0,96,0.00,n/a,n/a,-99.99,Henriksen +1-Wire,2013-05-06 04:02:00,
2013-05-06 00:03:00,43.3,42.4,30.25,SW,225,0.0,0.0,96,0.00,n/a,n/a,-99.99,Henriksen +1-Wire,2013-05-06 04:03:00,
2013-05-06 00:04:00,43.2,42.4,30.25,SSW,213,0.0,0.0,96,0.00,n/a,n/a,-99.99,Henriksen +1-Wire,2013-05-06 04:04:00,
2013-05-06 00:06:00,43.2,42.4,30.25,South,182,0.0,0.0,96,0.00,n/a,n/a,-99.99,Henriksen +1-Wire,2013-05-06 04:06:00,
2013-05-06 00:11:00,43.0,42.2,30.25,WSW,240,0.0,0.0,97,0.00,n/a,n/a,-99.99,Henriksen +1-Wire,2013-05-06 04:11:00,
2013-05-06 00:16:00,42.8,42.2,30.25,SW,231,0.0,0.0,97,0.00,n/a,n/a,-99.99,Henriksen +1-Wire,2013-05-06 04:16:00,
2013-05-06 00:21:00,42.8,42.2,30.25,SSW,198,0.0,0.0,97,0.00,n/a,n/a,-99.99,Henriksen +1-Wire,2013-05-06 04:21:00,
2013-05-06 00:26:00,42.6,42.1,30.24,SSW,211,0.0,0.0,98,0.00,n/a,n/a,-99.99,Henriksen +1-Wire,2013-05-06 04:26:00,
2013-05-06 00:32:00,42.5,42.1,30.24,NW,310,0.0,0.0,98,0.00,n/a,n/a,-99.99,Henriksen +1-Wire,2013-05-06 04:32:00,
2013-05-06 00:37:00,42.4,42.0,30.25,NNW,328,0.0,0.0,98,0.00,n/a,n/a,-99.99,Henriksen +1-Wire,2013-05-06 04:37:00,
2013-05-06 00:42:00,42.3,42.0,30.25,East,82,0.0,0.0,98,0.00,n/a,n/a,-99.99,Henriksen +1-Wire,2013-05-06 04:42:00,
2013-05-06 00:47:00,42.3,42.1,30.25,East,88,0.0,0.8,99,0.00,n/a,n/a,-99.99,Henriksen +1-Wire,2013-05-06 04:47:00,
2013-05-06 00:53:00,42.2,42.1,30.25,ESE,112,0.0,0.8,99,0.00,n/a,n/a,-99.99,Henriksen +1-Wire,2013-05-06 04:53:00,
2013-05-06 00:58:00,42.2,42.1,30.25,East,89,0.0,0.2,99,0.00,n/a,n/a,-99.99,Henriksen +1-Wire,2013-05-06 04:58:00,
2013-05-06 01:04:00,42.1,42.0,30.25,NNE,14,0.0,0.2,99,0.00,n/a,n/a,-99.99,Henriksen +1-Wire,2013-05-06 05:04:00,
2013-05-06 01:09:00,42.0,42.0,30.24,NNW,338,0.0,0.0,99,0.00,n/a,n/a,-99.99,Henriksen +1-Wire,2013-05-06 05:09:00,
2013-05-06 01:15:00,42.0,42.0,30.24,North,360,0.1,1.2,99,0.00,n/a,n/a,-99.99,Henriksen +1-Wire,2013-05-06 05:15:00,
2013-05-06 01:20:00,42.0,42.0,30.24,NNW,343,0.0,1.2,100,0.00,n/a,n/a,-99.99,Henriksen +1-Wire,2013-05-06 05:20:00,
2013-05-06 01:25:00,42.0,42.0,30.24,NNW,346,0.0,0.5,100,0.00,n/a,n/a,-99.99,Henriksen +1-Wire,2013-05-06 05:25:00,
2013-05-06 01:30:00,42.0,42.0,30.24,North,8,0.0,0.0,100,0.00,n/a,n/a,-99.99,Henriksen +1-Wire,2013-05-06 05:30:00,
2013-05-06 01:35:00,41.9,41.9,30.24,North,3,0.0,0.0,100,0.00,n/a,n/a,-99.99,Henriksen +1-Wire,2013-05-06 05:35:00,
2013-05-06 01:40:00,41.8,41.8,30.24,North,8,0.3,1.7,100,0.00,n/a,n/a,-99.99,Henriksen +1-Wire,2013-05-06 05:40:00,
2013-05-06 01:45:00,41.7,41.7,30.24,North,357,0.0,1.7,100,0.00,n/a,n/a,-99.99,Henriksen +1-Wire,2013-05-06 05:45:00,
2013-05-06 01:50:00,41.6,41.6,30.24,North,8,0.0,0.0,100,0.00,n/a,n/a,-99.99,Henriksen +1-Wire,2013-05-06 05:50:00,
2013-05-06 01:55:00,41.4,41.4,30.24,North,357,0.0,0.0,100,0.00,n/a,n/a,-99.99,Henriksen +1-Wire,2013-05-06 05:55:00,
2013-05-06 02:00:00,41.1,41.1,30.24,NNE,12,0.0,0.0,100,0.00,n/a,n/a,-99.99,Henriksen +1-Wire,2013-05-06 06:00:00,
2013-05-06 02:05:00,40.8,40.8,30.23,North,2,0.0,0.0,100,0.00,n/a,n/a,-99.99,Henriksen +1-Wire,2013-05-06 06:05:00,
2013-05-06 02:10:00,40.5,40.5,30.23,NNE,12,0.0,0.0,100,0.00,n/a,n/a,-99.99,Henriksen +1-Wire,2013-05-06 06:10:00,
2013-05-06 02:15:00,40.1,40.1,30.23,NNE,14,0.0,0.0,100,0.00,n/a,n/a,-99.99,Henriksen +1-Wire,2013-05-06 06:15:00,
2013-05-06 02:20:00,39.8,39.8,30.24,NNE,26,0.0,0.0,100,0.00,n/a,n/a,-99.99,Henriksen +1-Wire,2013-05-06 06:20:00,
2013-05-06 02:25:00,39.6,39.6,30.23,NNE,23,0.0,0.0,100,0.00,n/a,n/a,-99.99,Henriksen +1-Wire,2013-05-06 06:25:00,
2013-05-06 02:30:00,39.2,39.2,30.23,NNE,23,0.0,0.0,100,0.00,n/a,n/a,-99.99,Henriksen +1-Wire,2013-05-06 06:30:00,
2013-05-06 02:35:00,39.0,39.0,30.23,NNE,21,0.0,0.5,100,0.00,n/a,n/a,-99.99,Henriksen +1-Wire,2013-05-06 06:35:00,
2013-05-06 02:40:00,38.8,38.8,30.23,NNE,26,0.0,0.5,100,0.00,n/a,n/a,-99.99,Henriksen +1-Wire,2013-05-06 06:40:00,
2013-05-06 02:45:00,38.6,38.6,30.23,NNE,22,0.0,0.0,100,0.00,n/a,n/a,-99.99,Henriksen +1-Wire,2013-05-06 06:45:00,
2013-05-06 02:50:00,38.5,38.5,30.23,North,8,0.0,0.0,100,0.00,n/a,n/a,-99.99,Henriksen +1-Wire,2013-05-06 06:50:00,
2013-05-06 02:56:00,38.4,38.4,30.23,North,2,0.0,0.0,100,0.00,n/a,n/a,-99.99,Henriksen +1-Wire,2013-05-06 06:56:00,
2013-05-06 03:01:00,38.2,38.2,30.23,NE,39,0.0,0.0,100,0.00,n/a,n/a,-99.99,Henriksen +1-Wire,2013-05-06 07:01:00,
2013-05-06 03:06:00,38.0,38.0,30.23,NE,43,0.0,0.0,100,0.00,n/a,n/a,-99.99,Henriksen +1-Wire,2013-05-06 07:06:00,
2013-05-06 03:12:00,37.9,37.9,30.23,NE,36,0.0,0.0,100,0.00,n/a,n/a,-99.99,Henriksen +1-Wire,2013-05-06 07:12:00,
2013-05-06 03:17:00,37.8,37.8,30.22,NNE,19,0.0,0.0,100,0.00,n/a,n/a,-99.99,Henriksen +1-Wire,2013-05-06 07:17:00,
2013-05-06 03:22:00,37.7,37.7,30.22,North,2,0.0,0.0,100,0.00,n/a,n/a,-99.99,Henriksen +1-Wire,2013-05-06 07:22:00,
2013-05-06 03:27:00,37.6,37.6,30.22,North,1,0.0,0.0,100,0.00,n/a,n/a,-99.99,Henriksen +1-Wire,2013-05-06 07:27:00,
2013-05-06 03:32:00,37.6,37.6,30.22,North,3,0.0,0.0,100,0.00,n/a,n/a,-99.99,Henriksen +1-Wire,2013-05-06 07:32:00,
2013-05-06 03:37:00,37.5,37.5,30.22,NNE,29,0.0,0.0,100,0.00,n/a,n/a,-99.99,Henriksen +1-Wire,2013-05-06 07:37:00,
2013-05-06 03:42:00,37.4,37.4,30.22,North,4,0.0,0.0,100,0.00,n/a,n/a,-99.99,Henriksen +1-Wire,2013-05-06 07:42:00,
2013-05-06 03:48:00,37.3,37.3,30.22,North,11,0.0,0.0,100,0.00,n/a,n/a,-99.99,Henriksen +1-Wire,2013-05-06 07:48:00,
2013-05-06 03:53:00,37.2,37.2,30.22,North,3,0.0,0.0,100,0.00,n/a,n/a,-99.99,Henriksen +1-Wire,2013-05-06 07:53:00,
2013-05-06 03:59:00,37.2,37.2,30.22,North,1,0.0,0.0,100,0.00,n/a,n/a,-99.99,Henriksen +1-Wire,2013-05-06 07:59:00,
2013-05-06 04:05:00,37.2,37.2,30.22,North,9,0.0,0.0,100,0.00,n/a,n/a,-99.99,Henriksen +1-Wire,2013-05-06 08:05:00,
2013-05-06 04:10:00,37.1,37.1,30.21,North,8,0.0,0.0,100,0.00,n/a,n/a,-99.99,Henriksen +1-Wire,2013-05-06 08:10:00,
2013-05-06 04:15:00,37.0,37.0,30.21,North,1,0.0,0.0,100,0.00,n/a,n/a,-99.99,Henriksen +1-Wire,2013-05-06 08:15:00,
2013-05-06 04:20:00,36.9,36.9,30.21,North,8,0.0,0.0,100,0.00,n/a,n/a,-99.99,Henriksen +1-Wire,2013-05-06 08:20:00,
2013-05-06 04:25:00,36.9,36.9,30.21,North,1,0.0,0.0,100,0.00,n/a,n/a,-99.99,Henriksen +1-Wire,2013-05-06 08:25:00,
2013-05-06 04:31:00,36.8,36.8,30.21,North,4,0.0,0.0,100,0.00,n/a,n/a,-99.99,Henriksen +1-Wire,2013-05-06 08:31:00,
2013-05-06 04:36:00,36.8,36.8,30.21,North,358,0.0,0.0,100,0.00,n/a,n/a,-99.99,Henriksen +1-Wire,2013-05-06 08:36:00,
2013-05-06 04:41:00,36.8,36.8,30.22,NE,41,0.0,0.0,100,0.00,n/a,n/a,-99.99,Henriksen +1-Wire,2013-05-06 08:41:00,
2013-05-06 04:47:00,36.6,36.6,30.22,NNE,27,0.0,0.0,100,0.00,n/a,n/a,-99.99,Henriksen +1-Wire,2013-05-06 08:47:00,
2013-05-06 04:52:00,36.5,36.5,30.22,NNE,31,0.0,0.0,100,0.00,n/a,n/a,-99.99,Henriksen +1-Wire,2013-05-06 08:52:00,
2013-05-06 04:57:00,36.3,36.3,30.22,NNE,30,0.0,0.0,100,0.00,n/a,n/a,-99.99,Henriksen +1-Wire,2013-05-06 08:57:00,
2013-05-06 05:02:00,36.3,36.3,30.22,NE,44,0.0,0.0,100,0.00,n/a,n/a,-99.99,Henriksen +1-Wire,2013-05-06 09:02:00,
2013-05-06 05:07:00,36.3,36.3,30.22,NNE,33,0.0,0.0,100,0.00,n/a,n/a,-99.99,Henriksen +1-Wire,2013-05-06 09:07:00,
2013-05-06 05:12:00,36.3,36.3,30.22,North,8,0.0,0.0,100,0.00,n/a,n/a,-99.99,Henriksen +1-Wire,2013-05-06 09:12:00,
2013-05-06 05:17:00,36.4,36.4,30.22,North,3,0.0,0.0,100,0.00,n/a,n/a,-99.99,Henriksen +1-Wire,2013-05-06 09:17:00,
2013-05-06 05:22:00,36.4,36.4,30.23,North,8,0.0,0.0,100,0.00,n/a,n/a,-99.99,Henriksen +1-Wire,2013-05-06 09:22:00,
2013-05-06 05:27:00,36.3,36.3,30.23,North,10,0.0,0.0,100,0.00,n/a,n/a,-99.99,Henriksen +1-Wire,2013-05-06 09:27:00,
2013-05-06 05:32:00,36.3,36.3,30.23,NNE,25,0.0,0.0,100,0.00,n/a,n/a,-99.99,Henriksen +1-Wire,2013-05-06 09:32:00,
2013-05-06 05:37:00,36.2,36.2,30.22,NNE,23,0.0,0.0,100,0.00,n/a,n/a,-99.99,Henriksen +1-Wire,2013-05-06 09:37:00,
2013-05-06 05:42:00,36.3,36.3,30.23,NNE,15,0.7,1.6,100,0.00,n/a,n/a,-99.99,Henriksen +1-Wire,2013-05-06 09:42:00,
2013-05-06 05:47:00,36.4,36.4,30.23,NNE,17,0.3,1.6,100,0.00,n/a,n/a,-99.99,Henriksen +1-Wire,2013-05-06 09:47:00,
2013-05-06 05:52:00,36.5,36.5,30.23,NNE,23,0.3,2.0,100,0.00,n/a,n/a,-99.99,Henriksen +1-Wire,2013-05-06 09:52:00,
2013-05-06 05:58:00,36.7,36.7,30.23,North,9,0.8,2.4,100,0.00,n/a,n/a,-99.99,Henriksen +1-Wire,2013-05-06 09:58:00,
2013-05-06 06:03:00,37.0,37.0,30.23,NNE,25,1.1,2.4,100,0.00,n/a,n/a,-99.99,Henriksen +1-Wire,2013-05-06 10:03:00,
2013-05-06 06:08:00,37.2,37.2,30.23,North,6,0.3,2.8,100,0.00,n/a,n/a,-99.99,Henriksen +1-Wire,2013-05-06 10:08:00,
2013-05-06 06:13:00,37.5,37.5,30.24,ENE,57,0.0,2.8,100,0.00,n/a,n/a,-99.99,Henriksen +1-Wire,2013-05-06 10:13:00,
2013-05-06 06:18:00,37.8,37.8,30.24,NNE,21,1.3,1.7,100,0.00,n/a,n/a,-99.99,Henriksen +1-Wire,2013-05-06 10:18:00,
2013-05-06 06:24:00,38.1,38.1,30.24,North,11,0.3,1.7,100,0.00,n/a,n/a,-99.99,Henriksen +1-Wire,2013-05-06 10:24:00,
2013-05-06 06:29:00,38.4,38.4,30.24,NNE,18,0.0,1.6,100,0.00,n/a,n/a,-99.99,Henriksen +1-Wire,2013-05-06 10:29:00,
2013-05-06 06:35:00,38.9,38.9,30.24,North,360,0.0,0.8,100,0.00,n/a,n/a,-99.99,Henriksen +1-Wire,2013-05-06 10:35:00,
2013-05-06 06:40:00,39.2,39.2,30.24,North,355,0.0,0.8,100,0.00,n/a,n/a,-99.99,Henriksen +1-Wire,2013-05-06 10:40:00,
2013-05-06 06:45:00,39.6,39.6,30.24,South,177,0.0,0.8,100,0.00,n/a,n/a,-99.99,Henriksen +1-Wire,2013-05-06 10:45:00,
2013-05-06 06:50:00,39.9,39.9,30.24,South,172,0.0,0.1,100,0.00,n/a,n/a,-99.99,Henriksen +1-Wire,2013-05-06 10:50:00,
2013-05-06 06:55:00,40.3,40.3,30.25,South,181,0.0,0.0,100,0.00,n/a,n/a,-99.99,Henriksen +1-Wire,2013-05-06 10:55:00,
2013-05-06 07:00:00,40.8,40.8,30.25,SE,135,0.0,0.0,100,0.00,n/a,n/a,-99.99,Henriksen +1-Wire,2013-05-06 11:00:00,
2013-05-06 07:05:00,41.2,41.2,30.25,ESE,113,0.0,0.0,100,0.00,n/a,n/a,-99.99,Henriksen +1-Wire,2013-05-06 11:05:00,
2013-05-06 07:10:00,41.7,41.7,30.25,East,79,0.0,0.8,100,0.00,n/a,n/a,-99.99,Henriksen +1-Wire,2013-05-06 11:10:00,
2013-05-06 07:15:00,41.9,41.9,30.25,NE,47,0.0,0.8,100,0.00,n/a,n/a,-99.99,Henriksen +1-Wire,2013-05-06 11:15:00,
2013-05-06 07:20:00,42.1,42.1,30.25,SE,127,0.0,0.0,100,0.00,n/a,n/a,-99.99,Henriksen +1-Wire,2013-05-06 11:20:00,
2013-05-06 07:25:00,42.5,42.5,30.25,SSE,154,0.0,0.0,100,0.00,n/a,n/a,-99.99,Henriksen +1-Wire,2013-05-06 11:25:00,
2013-05-06 07:31:00,42.9,42.9,30.25,SSW,198,0.7,1.6,100,0.00,n/a,n/a,-99.99,Henriksen +1-Wire,2013-05-06 11:31:00,
2013-05-06 07:36:00,43.2,43.2,30.25,SSW,202,1.4,3.2,100,0.00,n/a,n/a,-99.99,Henriksen +1-Wire,2013-05-06 11:36:00,
2013-05-06 07:41:00,43.6,43.6,30.26,WSW,239,2.0,3.9,100,0.00,n/a,n/a,-99.99,Henriksen +1-Wire,2013-05-06 11:41:00,
2013-05-06 07:46:00,43.7,43.7,30.26,SW,217,0.3,3.9,100,0.00,n/a,n/a,-99.99,Henriksen +1-Wire,2013-05-06 11:46:00,
2013-05-06 07:51:00,43.9,43.9,30.26,SSW,196,0.1,3.5,100,0.00,n/a,n/a,-99.99,Henriksen +1-Wire,2013-05-06 11:51:00,
2013-05-06 07:56:00,44.2,44.2,30.26,SW,216,1.8,3.2,100,0.00,n/a,n/a,-99.99,Henriksen +1-Wire,2013-05-06 11:56:00,
2013-05-06 08:01:00,44.2,44.2,30.26,SW,235,1.2,3.2,100,0.00,n/a,n/a,-99.99,Henriksen +1-Wire,2013-05-06 12:01:00,
2013-05-06 08:07:00,44.3,44.3,30.26,SW,230,0.3,3.2,100,0.00,n/a,n/a,-99.99,Henriksen +1-Wire,2013-05-06 12:07:00,
2013-05-06 08:12:00,44.5,44.5,30.26,WSW,240,0.2,3.2,100,0.00,n/a,n/a,-99.99,Henriksen +1-Wire,2013-05-06 12:12:00,
2013-05-06 08:17:00,44.6,44.6,30.26,SW,230,1.7,4.4,100,0.00,n/a,n/a,-99.99,Henriksen +1-Wire,2013-05-06 12:17:00,
2013-05-06 08:22:00,44.8,44.8,30.25,SSW,203,2.7,4.4,100,0.00,n/a,n/a,-99.99,Henriksen +1-Wire,2013-05-06 12:22:00,
2013-05-06 08:27:00,44.9,44.9,30.26,SW,220,2.9,4.8,100,0.00,n/a,n/a,-99.99,Henriksen +1-Wire,2013-05-06 12:27:00,
2013-05-06 08:32:00,45.1,45.1,30.26,SSW,201,3.0,5.6,100,0.00,n/a,n/a,-99.99,Henriksen +1-Wire,2013-05-06 12:32:00,
2013-05-06 08:37:00,45.3,45.3,30.26,SW,215,3.3,5.6,100,0.00,n/a,n/a,-99.99,Henriksen +1-Wire,2013-05-06 12:37:00,
2013-05-06 08:42:00,45.4,45.4,30.26,SSW,207,2.9,6.0,100,0.00,n/a,n/a,-99.99,Henriksen +1-Wire,2013-05-06 12:42:00,
2013-05-06 08:47:00,45.4,45.4,30.26,SW,225,1.0,6.0,100,0.00,n/a,n/a,-99.99,Henriksen +1-Wire,2013-05-06 12:47:00,
2013-05-06 08:52:00,45.4,45.4,30.26,SW,224,0.9,5.5,99,0.00,n/a,n/a,-99.99,Henriksen +1-Wire,2013-05-06 12:52:00,
2013-05-06 08:57:00,45.5,45.5,30.26,SW,223,2.5,4.4,99,0.00,n/a,n/a,-99.99,Henriksen +1-Wire,2013-05-06 12:57:00,
2013-05-06 09:02:00,45.7,45.5,30.26,SSW,201,2.6,6.6,99,0.00,n/a,n/a,-99.99,Henriksen +1-Wire,2013-05-06 13:02:00,
2013-05-06 09:07:00,45.9,45.6,30.26,SSW,201,2.5,6.6,98,0.00,n/a,n/a,-99.99,Henriksen +1-Wire,2013-05-06 13:07:00,
2013-05-06 09:12:00,46.2,45.7,30.26,SSW,195,3.7,5.3,98,0.00,n/a,n/a,-99.99,Henriksen +1-Wire,2013-05-06 13:12:00,
2013-05-06 09:17:00,46.3,45.6,30.26,SSW,196,2.1,5.3,97,0.00,n/a,n/a,-99.99,Henriksen +1-Wire,2013-05-06 13:17:00,
2013-05-06 09:22:00,46.4,45.7,30.26,SSW,201,3.4,6.3,97,0.00,n/a,n/a,-99.99,Henriksen +1-Wire,2013-05-06 13:22:00,
2013-05-06 09:27:00,46.7,45.9,30.26,SSW,196,2.7,6.3,96,0.00,n/a,n/a,-99.99,Henriksen +1-Wire,2013-05-06 13:27:00,
2013-05-06 09:32:00,47.1,46.2,30.27,SSW,199,2.8,6.3,96,0.00,n/a,n/a,-99.99,Henriksen +1-Wire,2013-05-06 13:32:00,
2013-05-06 09:38:00,47.4,46.1,30.27,SSW,198,2.4,5.6,95,0.00,n/a,n/a,-99.99,Henriksen +1-Wire,2013-05-06 13:38:00,
2013-05-06 09:44:00,48.1,46.3,30.26,West,261,2.2,4.8,93,0.00,n/a,n/a,-99.99,Henriksen +1-Wire,2013-05-06 13:44:00,
2013-05-06 09:49:00,48.3,46.2,30.26,SW,232,1.9,4.0,92,0.00,n/a,n/a,-99.99,Henriksen +1-Wire,2013-05-06 13:49:00,
2013-05-06 09:55:00,48.6,46.0,30.26,SSW,206,3.6,5.5,90,0.00,n/a,n/a,-99.99,Henriksen +1-Wire,2013-05-06 13:55:00,
2013-05-06 10:00:00,48.9,46.2,30.26,SSW,195,3.8,5.8,90,0.00,n/a,n/a,-99.99,Henriksen +1-Wire,2013-05-06 14:00:00,
2013-05-06 10:05:00,49.2,46.3,30.26,SSW,202,4.8,7.1,89,0.00,n/a,n/a,-99.99,Henriksen +1-Wire,2013-05-06 14:05:00,
2013-05-06 10:11:00,49.6,46.4,30.26,SW,216,4.4,8.0,88,0.00,n/a,n/a,-99.99,Henriksen +1-Wire,2013-05-06 14:11:00,
2013-05-06 10:16:00,49.9,46.5,30.27,SSW,200,4.7,8.0,88,0.00,n/a,n/a,-99.99,Henriksen +1-Wire,2013-05-06 14:16:00,
2013-05-06 10:21:00,50.0,46.5,30.27,SSW,208,4.7,8.0,87,0.00,n/a,n/a,-99.99,Henriksen +1-Wire,2013-05-06 14:21:00,
2013-05-06 10:26:00,50.4,46.8,30.26,SSW,196,4.3,7.1,87,0.00,n/a,n/a,-99.99,Henriksen +1-Wire,2013-05-06 14:26:00,
2013-05-06 10:31:00,50.3,46.6,30.26,SSW,194,4.9,8.0,86,0.00,n/a,n/a,-99.99,Henriksen +1-Wire,2013-05-06 14:31:00,
2013-05-06 10:36:00,50.5,46.5,30.26,SSW,193,4.7,8.0,86,0.00,n/a,n/a,-99.99,Henriksen +1-Wire,2013-05-06 14:36:00,
2013-05-06 10:41:00,50.5,46.4,30.27,South,189,5.7,8.2,85,0.00,n/a,n/a,-99.99,Henriksen +1-Wire,2013-05-06 14:41:00,
2013-05-06 10:47:00,50.4,46.4,30.26,SSW,192,4.6,8.2,85,0.00,n/a,n/a,-99.99,Henriksen +1-Wire,2013-05-06 14:47:00,
2013-05-06 10:52:00,50.4,46.6,30.26,South,185,5.1,7.2,86,0.00,n/a,n/a,-99.99,Henriksen +1-Wire,2013-05-06 14:52:00,
2013-05-06 10:57:00,50.4,46.7,30.26,SSW,194,5.7,7.9,87,0.00,n/a,n/a,-99.99,Henriksen +1-Wire,2013-05-06 14:57:00,
2013-05-06 11:02:00,50.5,46.8,30.26,SSW,202,4.7,7.9,87,0.00,n/a,n/a,-99.99,Henriksen +1-Wire,2013-05-06 15:02:00,
2013-05-06 11:07:00,50.7,47.0,30.26,SSW,195,5.0,9.5,86,0.00,n/a,n/a,-99.99,Henriksen +1-Wire,2013-05-06 15:07:00,
2013-05-06 11:13:00,50.9,47.0,30.26,South,191,4.2,9.5,86,0.00,n/a,n/a,-99.99,Henriksen +1-Wire,2013-05-06 15:13:00,
2013-05-06 11:18:00,51.2,47.2,30.26,SSW,196,4.8,8.7,85,0.00,n/a,n/a,-99.99,Henriksen +1-Wire,2013-05-06 15:18:00,
2013-05-06 11:23:00,51.2,47.1,30.25,SSW,199,5.1,9.5,85,0.00,n/a,n/a,-99.99,Henriksen +1-Wire,2013-05-06 15:23:00,
2013-05-06 11:28:00,51.3,47.2,30.25,SSW,200,5.1,9.5,85,0.00,n/a,n/a,-99.99,Henriksen +1-Wire,2013-05-06 15:28:00,
2013-05-06 11:33:00,51.3,47.1,30.25,SSW,194,5.4,8.6,85,0.00,n/a,n/a,-99.99,Henriksen +1-Wire,2013-05-06 15:33:00,
2013-05-06 11:38:00,51.3,47.2,30.25,SSW,192,5.6,9.2,85,0.00,n/a,n/a,-99.99,Henriksen +1-Wire,2013-05-06 15:38:00,
2013-05-06 11:43:00,51.5,47.5,30.25,South,191,6.0,10.3,85,0.00,n/a,n/a,-99.99,Henriksen +1-Wire,2013-05-06 15:43:00,
2013-05-06 11:48:00,51.6,47.5,30.25,SSW,196,3.8,10.3,85,0.00,n/a,n/a,-99.99,Henriksen +1-Wire,2013-05-06 15:48:00,
2013-05-06 11:53:00,52.1,47.9,30.24,SSW,197,4.9,8.6,85,0.00,n/a,n/a,-99.99,Henriksen +1-Wire,2013-05-06 15:53:00,
2013-05-06 11:58:00,52.5,48.2,30.24,SSW,199,4.5,7.9,85,0.00,n/a,n/a,-99.99,Henriksen +1-Wire,2013-05-06 15:58:00,
2013-05-06 12:03:00,52.6,48.2,30.24,SSW,196,6.0,9.2,84,0.00,n/a,n/a,-99.99,Henriksen +1-Wire,2013-05-06 16:03:00,
2013-05-06 12:08:00,52.2,47.8,30.24,SSW,198,4.8,9.5,84,0.00,n/a,n/a,-99.99,Henriksen +1-Wire,2013-05-06 16:08:00,
2013-05-06 12:13:00,52.1,47.7,30.23,SSW,194,7.1,10.3,84,0.00,n/a,n/a,-99.99,Henriksen +1-Wire,2013-05-06 16:13:00,
2013-05-06 12:18:00,51.9,47.6,30.23,SSW,195,4.0,10.3,85,0.00,n/a,n/a,-99.99,Henriksen +1-Wire,2013-05-06 16:18:00,
2013-05-06 12:23:00,51.9,47.6,30.23,South,190,6.4,11.1,85,0.00,n/a,n/a,-99.99,Henriksen +1-Wire,2013-05-06 16:23:00,
2013-05-06 12:29:00,52.1,47.7,30.23,SSW,192,6.7,11.1,84,0.00,n/a,n/a,-99.99,Henriksen +1-Wire,2013-05-06 16:29:00,
2013-05-06 12:35:00,52.1,47.7,30.23,SSW,196,3.6,8.8,84,0.00,n/a,n/a,-99.99,Henriksen +1-Wire,2013-05-06 16:35:00,
2013-05-06 12:40:00,51.8,47.2,30.23,SSW,199,4.4,8.4,84,0.00,n/a,n/a,-99.99,Henriksen +1-Wire,2013-05-06 16:40:00,
2013-05-06 12:45:00,52.0,47.4,30.23,SSW,197,4.1,7.8,84,0.00,n/a,n/a,-99.99,Henriksen +1-Wire,2013-05-06 16:45:00,
2013-05-06 12:50:00,52.2,47.6,30.22,South,185,6.3,11.1,84,0.00,n/a,n/a,-99.99,Henriksen +1-Wire,2013-05-06 16:50:00,
2013-05-06 12:55:00,52.6,47.9,30.22,SSW,193,7.8,11.1,83,0.00,n/a,n/a,-99.99,Henriksen +1-Wire,2013-05-06 16:55:00,
2013-05-06 13:00:00,52.6,47.9,30.22,South,191,6.7,11.1,83,0.00,n/a,n/a,-99.99,Henriksen +1-Wire,2013-05-06 17:00:00,
2013-05-06 13:05:00,52.7,47.9,30.22,SSW,193,7.6,11.2,83,0.00,n/a,n/a,-99.99,Henriksen +1-Wire,2013-05-06 17:05:00,
2013-05-06 13:11:00,52.8,48.0,30.22,SSW,196,8.7,11.9,83,0.00,n/a,n/a,-99.99,Henriksen +1-Wire,2013-05-06 17:11:00,
2013-05-06 13:16:00,53.0,48.2,30.22,SSW,194,7.2,11.9,83,0.00,n/a,n/a,-99.99,Henriksen +1-Wire,2013-05-06 17:16:00,
2013-05-06 13:21:00,53.2,48.3,30.22,South,190,5.9,11.2,83,0.00,n/a,n/a,-99.99,Henriksen +1-Wire,2013-05-06 17:21:00,
2013-05-06 13:27:00,53.5,48.4,30.22,South,187,7.0,10.9,82,0.00,n/a,n/a,-99.99,Henriksen +1-Wire,2013-05-06 17:27:00,
2013-05-06 13:32:00,53.4,48.3,30.22,SSW,196,5.4,11.1,82,0.00,n/a,n/a,-99.99,Henriksen +1-Wire,2013-05-06 17:32:00,
2013-05-06 13:37:00,53.2,48.1,30.22,SSW,192,9.1,12.6,82,0.00,n/a,n/a,-99.99,Henriksen +1-Wire,2013-05-06 17:37:00,
2013-05-06 13:42:00,52.9,48.0,30.22,SSW,193,7.9,12.6,83,0.00,n/a,n/a,-99.99,Henriksen +1-Wire,2013-05-06 17:42:00,
2013-05-06 13:47:00,52.7,47.9,30.22,SSW,196,7.3,11.0,83,0.00,n/a,n/a,-99.99,Henriksen +1-Wire,2013-05-06 17:47:00,
2013-05-06 13:52:00,52.3,47.8,30.22,SSW,199,6.0,12.6,84,0.00,n/a,n/a,-99.99,Henriksen +1-Wire,2013-05-06 17:52:00,
2013-05-06 13:57:00,51.8,47.6,30.22,SSW,200,5.6,12.6,85,0.00,n/a,n/a,-99.99,Henriksen +1-Wire,2013-05-06 17:57:00,
2013-05-06 14:02:00,51.6,47.6,30.22,SSW,193,6.3,10.9,85,0.00,n/a,n/a,-99.99,Henriksen +1-Wire,2013-05-06 18:02:00,
2013-05-06 14:07:00,51.6,47.8,30.22,South,191,8.1,12.6,86,0.00,n/a,n/a,-99.99,Henriksen +1-Wire,2013-05-06 18:07:00,
2013-05-06 14:12:00,51.3,47.7,30.22,SSW,195,8.1,12.6,87,0.00,n/a,n/a,-99.99,Henriksen +1-Wire,2013-05-06 18:12:00,
2013-05-06 14:17:00,51.1,47.6,30.21,SSW,193,7.1,11.9,87,0.00,n/a,n/a,-99.99,Henriksen +1-Wire,2013-05-06 18:17:00,
2013-05-06 14:22:00,51.0,47.6,30.21,SSW,197,6.0,11.9,88,0.00,n/a,n/a,-99.99,Henriksen +1-Wire,2013-05-06 18:22:00,
2013-05-06 14:27:00,50.9,47.5,30.21,SSW,196,5.7,11.1,88,0.00,n/a,n/a,-99.99,Henriksen +1-Wire,2013-05-06 18:27:00,
2013-05-06 14:32:00,50.7,47.4,30.21,SSW,208,4.5,11.1,88,0.00,n/a,n/a,-99.99,Henriksen +1-Wire,2013-05-06 18:32:00,
2013-05-06 14:37:00,50.4,47.3,30.21,SSW,204,5.6,11.9,88,0.00,n/a,n/a,-99.99,Henriksen +1-Wire,2013-05-06 18:37:00,
2013-05-06 14:42:00,50.4,47.6,30.21,SSW,201,4.6,11.9,90,0.00,n/a,n/a,-99.99,Henriksen +1-Wire,2013-05-06 18:42:00,
2013-05-06 14:47:00,50.3,47.7,30.21,SSW,202,6.0,11.1,90,0.00,n/a,n/a,-99.99,Henriksen +1-Wire,2013-05-06 18:47:00,
2013-05-06 14:52:00,50.2,47.7,30.20,SSW,202,5.3,11.8,90,0.00,n/a,n/a,-99.99,Henriksen +1-Wire,2013-05-06 18:52:00,
2013-05-06 14:57:00,49.9,47.4,30.20,SSW,204,5.1,12.1,90,0.00,n/a,n/a,-99.99,Henriksen +1-Wire,2013-05-06 18:57:00,
2013-05-06 15:02:00,49.9,47.4,30.20,SSW,196,7.8,12.1,91,0.00,n/a,n/a,-99.99,Henriksen +1-Wire,2013-05-06 19:02:00,
2013-05-06 15:07:00,49.8,47.4,30.20,SSW,196,6.5,11.9,91,0.00,n/a,n/a,-99.99,Henriksen +1-Wire,2013-05-06 19:07:00,
2013-05-06 15:12:00,49.9,47.5,30.20,SSW,204,6.0,11.0,91,0.00,n/a,n/a,-99.99,Henriksen +1-Wire,2013-05-06 19:12:00,
2013-05-06 15:17:00,49.9,47.5,30.20,SSW,202,6.1,10.3,91,0.00,n/a,n/a,-99.99,Henriksen +1-Wire,2013-05-06 19:17:00,
2013-05-06 15:22:00,49.7,47.3,30.20,SSW,197,5.5,10.3,91,0.00,n/a,n/a,-99.99,Henriksen +1-Wire,2013-05-06 19:22:00,
2013-05-06 15:27:00,50.0,47.6,30.20,SSW,204,5.3,10.3,91,0.00,n/a,n/a,-99.99,Henriksen +1-Wire,2013-05-06 19:27:00,
2013-05-06 15:32:00,50.1,47.7,30.19,SSW,201,5.3,8.7,91,0.00,n/a,n/a,-99.99,Henriksen +1-Wire,2013-05-06 19:32:00,
2013-05-06 15:37:00,50.3,47.6,30.19,SSW,197,4.3,8.7,90,0.00,n/a,n/a,-99.99,Henriksen +1-Wire,2013-05-06 19:37:00,
2013-05-06 15:42:00,50.0,47.3,30.19,SSW,196,5.4,8.3,90,0.00,n/a,n/a,-99.99,Henriksen +1-Wire,2013-05-06 19:42:00,
2013-05-06 15:47:00,49.7,47.2,30.19,SSW,198,4.9,8.3,91,0.00,n/a,n/a,-99.99,Henriksen +1-Wire,2013-05-06 19:47:00,
2013-05-06 15:52:00,49.4,47.2,30.19,SSW,198,5.0,9.5,91,0.00,n/a,n/a,-99.99,Henriksen +1-Wire,2013-05-06 19:52:00,
2013-05-06 15:57:00,49.6,47.4,30.19,SSW,196,5.1,10.2,92,0.00,n/a,n/a,-99.99,Henriksen +1-Wire,2013-05-06 19:57:00,
2013-05-06 16:03:00,49.6,47.5,30.18,SSW,194,4.6,10.2,92,0.00,n/a,n/a,-99.99,Henriksen +1-Wire,2013-05-06 20:03:00,
2013-05-06 16:08:00,49.7,47.4,30.18,SSW,196,3.6,8.7,91,0.00,n/a,n/a,-99.99,Henriksen +1-Wire,2013-05-06 20:08:00,
2013-05-06 16:13:00,49.7,47.4,30.18,SSW,207,4.1,9.2,91,0.00,n/a,n/a,-99.99,Henriksen +1-Wire,2013-05-06 20:13:00,
2013-05-06 16:19:00,49.6,47.3,30.18,SSW,201,6.2,11.1,91,0.00,n/a,n/a,-99.99,Henriksen +1-Wire,2013-05-06 20:19:00,
2013-05-06 16:25:00,49.3,47.0,30.18,SSW,202,4.6,9.5,91,0.00,n/a,n/a,-99.99,Henriksen +1-Wire,2013-05-06 20:25:00,
2013-05-06 16:30:00,49.1,46.9,30.18,SSW,205,3.9,10.3,91,0.00,n/a,n/a,-99.99,Henriksen +1-Wire,2013-05-06 20:30:00,
2013-05-06 16:35:00,49.0,46.7,30.17,SSW,206,5.2,10.9,91,0.00,n/a,n/a,-99.99,Henriksen +1-Wire,2013-05-06 20:35:00,
2013-05-06 16:40:00,48.9,46.7,30.17,SSW,212,4.2,10.9,92,0.00,n/a,n/a,-99.99,Henriksen +1-Wire,2013-05-06 20:40:00,
2013-05-06 16:46:00,48.8,46.8,30.17,SSW,199,3.1,8.7,92,0.00,n/a,n/a,-99.99,Henriksen +1-Wire,2013-05-06 20:46:00,
2013-05-06 16:52:00,48.7,46.8,30.17,SSW,194,6.2,11.4,93,0.00,n/a,n/a,-99.99,Henriksen +1-Wire,2013-05-06 20:52:00,
2013-05-06 16:57:00,48.4,46.6,30.17,South,190,4.9,11.4,93,0.00,n/a,n/a,-99.99,Henriksen +1-Wire,2013-05-06 20:57:00,
2013-05-06 17:03:00,48.3,46.6,30.17,SSW,208,3.9,7.5,93,0.00,n/a,n/a,-99.99,Henriksen +1-Wire,2013-05-06 21:03:00,
2013-05-06 17:08:00,48.1,46.5,30.17,SSW,209,4.5,7.9,94,0.00,n/a,n/a,-99.99,Henriksen +1-Wire,2013-05-06 21:08:00,
2013-05-06 17:13:00,48.0,46.6,30.17,SSW,197,3.3,7.9,94,0.00,n/a,n/a,-99.99,Henriksen +1-Wire,2013-05-06 21:13:00,
2013-05-06 17:18:00,47.9,46.6,30.17,South,189,3.8,6.4,95,0.00,n/a,n/a,-99.99,Henriksen +1-Wire,2013-05-06 21:18:00,
2013-05-06 17:23:00,47.9,46.7,30.17,SSW,197,3.2,7.2,95,0.00,n/a,n/a,-99.99,Henriksen +1-Wire,2013-05-06 21:23:00,
2013-05-06 17:28:00,47.9,46.8,30.17,SSW,196,3.1,7.2,95,0.00,n/a,n/a,-99.99,Henriksen +1-Wire,2013-05-06 21:28:00,
2013-05-06 17:33:00,47.9,46.9,30.17,SSW,193,4.0,7.8,96,0.00,n/a,n/a,-99.99,Henriksen +1-Wire,2013-05-06 21:33:00,
2013-05-06 17:38:00,47.8,46.8,30.17,SSW,197,4.5,7.8,96,0.00,n/a,n/a,-99.99,Henriksen +1-Wire,2013-05-06 21:38:00,
2013-05-06 17:43:00,47.6,46.7,30.17,SSW,197,5.0,7.9,96,0.00,n/a,n/a,-99.99,Henriksen +1-Wire,2013-05-06 21:43:00,
2013-05-06 17:48:00,47.3,46.5,30.17,SSW,199,3.9,8.7,96,0.00,n/a,n/a,-99.99,Henriksen +1-Wire,2013-05-06 21:48:00,
2013-05-06 17:53:00,47.1,46.4,30.17,South,190,5.4,9.5,97,0.00,n/a,n/a,-99.99,Henriksen +1-Wire,2013-05-06 21:53:00,
2013-05-06 17:58:00,46.9,46.2,30.17,SSW,195,4.4,9.5,97,0.00,n/a,n/a,-99.99,Henriksen +1-Wire,2013-05-06 21:58:00,
2013-05-06 18:04:00,46.7,46.2,30.17,SSW,199,4.3,8.0,98,0.00,n/a,n/a,-99.99,Henriksen +1-Wire,2013-05-06 22:04:00,
2013-05-06 18:09:00,46.6,46.3,30.17,SSW,204,3.7,8.0,98,0.00,n/a,n/a,-99.99,Henriksen +1-Wire,2013-05-06 22:09:00,
2013-05-06 18:15:00,46.5,46.3,30.16,SSW,210,3.7,9.4,99,0.00,n/a,n/a,-99.99,Henriksen +1-Wire,2013-05-06 22:15:00,
2013-05-06 18:20:00,46.5,46.4,30.16,South,188,3.1,9.4,99,0.00,n/a,n/a,-99.99,Henriksen +1-Wire,2013-05-06 22:20:00,
2013-05-06 18:26:00,46.5,46.4,30.16,SSW,200,3.3,5.6,99,0.00,n/a,n/a,-99.99,Henriksen +1-Wire,2013-05-06 22:26:00,
2013-05-06 18:31:00,46.4,46.4,30.16,SSW,199,3.3,6.4,99,0.00,n/a,n/a,-99.99,Henriksen +1-Wire,2013-05-06 22:31:00,
2013-05-06 18:36:00,46.3,46.3,30.16,SSW,197,3.9,8.0,99,0.00,n/a,n/a,-99.99,Henriksen +1-Wire,2013-05-06 22:36:00,
2013-05-06 18:41:00,46.1,46.1,30.16,SSW,204,3.4,8.0,99,0.00,n/a,n/a,-99.99,Henriksen +1-Wire,2013-05-06 22:41:00,
2013-05-06 18:47:00,46.0,46.0,30.16,SSW,209,3.3,7.1,100,0.00,n/a,n/a,-99.99,Henriksen +1-Wire,2013-05-06 22:47:00,
2013-05-06 18:53:00,45.8,45.8,30.15,South,184,3.0,8.7,100,0.00,n/a,n/a,-99.99,Henriksen +1-Wire,2013-05-06 22:53:00,
2013-05-06 18:58:00,45.7,45.7,30.15,South,187,3.4,6.3,100,0.00,n/a,n/a,-99.99,Henriksen +1-Wire,2013-05-06 22:58:00,
2013-05-06 19:03:00,45.7,45.7,30.15,SW,216,3.5,6.3,100,0.00,n/a,n/a,-99.99,Henriksen +1-Wire,2013-05-06 23:03:00,
2013-05-06 19:08:00,45.6,45.6,30.15,SW,214,3.1,5.5,100,0.00,n/a,n/a,-99.99,Henriksen +1-Wire,2013-05-06 23:08:00,
2013-05-06 19:13:00,45.6,45.6,30.15,South,185,2.3,5.5,100,0.00,n/a,n/a,-99.99,Henriksen +1-Wire,2013-05-06 23:13:00,
2013-05-06 19:18:00,45.5,45.5,30.15,South,187,2.9,7.1,100,0.00,n/a,n/a,-99.99,Henriksen +1-Wire,2013-05-06 23:18:00,
2013-05-06 19:23:00,45.5,45.5,30.15,SSW,199,3.8,7.1,100,0.00,n/a,n/a,-99.99,Henriksen +1-Wire,2013-05-06 23:23:00,
2013-05-06 19:28:00,45.6,45.6,30.15,SSW,195,3.0,6.2,100,0.00,n/a,n/a,-99.99,Henriksen +1-Wire,2013-05-06 23:28:00,
2013-05-06 19:33:00,45.6,45.6,30.15,SSW,195,2.7,6.2,100,0.00,n/a,n/a,-99.99,Henriksen +1-Wire,2013-05-06 23:33:00,
2013-05-06 19:39:00,45.4,45.4,30.15,SSW,205,2.9,5.6,100,0.00,n/a,n/a,-99.99,Henriksen +1-Wire,2013-05-06 23:39:00,
2013-05-06 19:45:00,45.3,45.3,30.15,SSW,197,3.2,6.3,100,0.00,n/a,n/a,-99.99,Henriksen +1-Wire,2013-05-06 23:45:00,
2013-05-06 19:50:00,45.3,45.3,30.15,SSW,193,3.9,7.1,100,0.00,n/a,n/a,-99.99,Henriksen +1-Wire,2013-05-06 23:50:00,
2013-05-06 19:55:00,45.3,45.3,30.15,South,188,1.5,7.1,100,0.00,n/a,n/a,-99.99,Henriksen +1-Wire,2013-05-06 23:55:00,
2013-05-06 20:00:00,45.3,45.3,30.15,SSE,162,2.2,6.3,100,0.00,n/a,n/a,-99.99,Henriksen +1-Wire,2013-05-07 00:00:00,
2013-05-06 20:05:00,45.2,45.2,30.15,South,189,4.7,7.9,100,0.00,n/a,n/a,-99.99,Henriksen +1-Wire,2013-05-07 00:05:00,
2013-05-06 20:10:00,45.1,45.1,30.15,South,185,4.0,8.0,100,0.00,n/a,n/a,-99.99,Henriksen +1-Wire,2013-05-07 00:10:00,
2013-05-06 20:15:00,45.0,45.0,30.15,SSW,193,4.1,8.0,100,0.00,n/a,n/a,-99.99,Henriksen +1-Wire,2013-05-07 00:15:00,
2013-05-06 20:20:00,45.0,45.0,30.15,SSW,192,2.7,7.2,100,0.00,n/a,n/a,-99.99,Henriksen +1-Wire,2013-05-07 00:20:00,
2013-05-06 20:25:00,45.0,45.0,30.15,SSW,196,2.7,7.1,100,0.00,n/a,n/a,-99.99,Henriksen +1-Wire,2013-05-07 00:25:00,
2013-05-06 20:30:00,45.0,45.0,30.15,SSW,207,2.6,7.1,100,0.00,n/a,n/a,-99.99,Henriksen +1-Wire,2013-05-07 00:30:00,
2013-05-06 20:35:00,45.0,45.0,30.16,SSW,204,3.2,5.6,100,0.00,n/a,n/a,-99.99,Henriksen +1-Wire,2013-05-07 00:35:00,
2013-05-06 20:40:00,44.9,44.9,30.16,SSW,200,3.2,6.7,100,0.00,n/a,n/a,-99.99,Henriksen +1-Wire,2013-05-07 00:40:00,
2013-05-06 20:46:00,44.9,44.9,30.16,SSW,198,3.5,7.1,100,0.00,n/a,n/a,-99.99,Henriksen +1-Wire,2013-05-07 00:46:00,
2013-05-06 20:51:00,44.9,44.9,30.16,SSW,194,1.2,7.1,100,0.00,n/a,n/a,-99.99,Henriksen +1-Wire,2013-05-07 00:51:00,
2013-05-06 20:56:00,44.9,44.9,30.16,SSW,197,4.2,5.6,100,0.00,n/a,n/a,-99.99,Henriksen +1-Wire,2013-05-07 00:56:00,
2013-05-06 21:01:00,44.9,44.9,30.16,SSW,202,3.7,6.3,100,0.00,n/a,n/a,-99.99,Henriksen +1-Wire,2013-05-07 01:01:00,
2013-05-06 21:07:00,45.0,45.0,30.16,SSW,205,2.1,6.3,100,0.00,n/a,n/a,-99.99,Henriksen +1-Wire,2013-05-07 01:07:00,
2013-05-06 21:12:00,45.0,45.0,30.16,South,191,2.5,4.7,100,0.00,n/a,n/a,-99.99,Henriksen +1-Wire,2013-05-07 01:12:00,
2013-05-06 21:17:00,44.9,44.9,30.16,SSW,206,2.6,4.8,100,0.00,n/a,n/a,-99.99,Henriksen +1-Wire,2013-05-07 01:17:00,
2013-05-06 21:22:00,44.9,44.9,30.16,SSW,201,2.9,5.5,100,0.00,n/a,n/a,-99.99,Henriksen +1-Wire,2013-05-07 01:22:00,
2013-05-06 21:27:00,45.0,45.0,30.16,SSW,202,3.9,5.5,100,0.00,n/a,n/a,-99.99,Henriksen +1-Wire,2013-05-07 01:27:00,
2013-05-06 21:32:00,45.0,45.0,30.16,SSW,198,4.0,5.6,100,0.00,n/a,n/a,-99.99,Henriksen +1-Wire,2013-05-07 01:32:00,
2013-05-06 21:37:00,45.1,45.1,30.17,SSW,195,3.9,7.1,100,0.00,n/a,n/a,-99.99,Henriksen +1-Wire,2013-05-07 01:37:00,
2013-05-06 21:42:00,45.1,45.1,30.17,SSW,209,3.2,7.1,100,0.00,n/a,n/a,-99.99,Henriksen +1-Wire,2013-05-07 01:42:00,
2013-05-06 21:47:00,45.1,45.1,30.17,SSW,201,2.9,7.1,100,0.00,n/a,n/a,-99.99,Henriksen +1-Wire,2013-05-07 01:47:00,
2013-05-06 21:52:00,45.2,45.2,30.17,SSW,194,2.3,7.1,100,0.00,n/a,n/a,-99.99,Henriksen +1-Wire,2013-05-07 01:52:00,
2013-05-06 21:57:00,45.2,45.2,30.17,SSW,201,2.7,5.8,100,0.00,n/a,n/a,-99.99,Henriksen +1-Wire,2013-05-07 01:57:00,
2013-05-06 22:02:00,45.2,45.2,30.17,South,190,3.8,5.8,100,0.00,n/a,n/a,-99.99,Henriksen +1-Wire,2013-05-07 02:02:00,
2013-05-06 22:07:00,45.2,45.2,30.16,SSW,195,3.3,6.3,100,0.00,n/a,n/a,-99.99,Henriksen +1-Wire,2013-05-07 02:07:00,
2013-05-06 22:12:00,45.3,45.3,30.16,SSW,202,2.7,6.3,100,0.00,n/a,n/a,-99.99,Henriksen +1-Wire,2013-05-07 02:12:00,
2013-05-06 22:17:00,45.3,45.3,30.17,SSW,204,2.9,5.5,100,0.00,n/a,n/a,-99.99,Henriksen +1-Wire,2013-05-07 02:17:00,
2013-05-06 22:22:00,45.3,45.3,30.17,SW,220,2.3,4.2,100,0.00,n/a,n/a,-99.99,Henriksen +1-Wire,2013-05-07 02:22:00,
2013-05-06 22:27:00,45.3,45.3,30.17,SSW,203,3.6,5.5,100,0.00,n/a,n/a,-99.99,Henriksen +1-Wire,2013-05-07 02:27:00,
2013-05-06 22:33:00,45.4,45.4,30.17,SSW,208,2.5,5.5,100,0.00,n/a,n/a,-99.99,Henriksen +1-Wire,2013-05-07 02:33:00,
2013-05-06 22:38:00,45.4,45.4,30.17,SW,217,3.2,4.2,100,0.00,n/a,n/a,-99.99,Henriksen +1-Wire,2013-05-07 02:38:00,
2013-05-06 22:43:00,45.4,45.4,30.17,SSW,208,2.7,5.4,100,0.00,n/a,n/a,-99.99,Henriksen +1-Wire,2013-05-07 02:43:00,
2013-05-06 22:48:00,45.5,45.5,30.17,SSW,210,2.7,5.4,100,0.00,n/a,n/a,-99.99,Henriksen +1-Wire,2013-05-07 02:48:00,
2013-05-06 22:53:00,45.5,45.5,30.16,SSW,198,3.3,4.8,100,0.00,n/a,n/a,-99.99,Henriksen +1-Wire,2013-05-07 02:53:00,
2013-05-06 22:58:00,45.6,45.6,30.16,SSW,199,2.2,4.8,100,0.00,n/a,n/a,-99.99,Henriksen +1-Wire,2013-05-07 02:58:00,
2013-05-06 23:03:00,45.7,45.7,30.16,SSW,208,1.9,4.1,100,0.00,n/a,n/a,-99.99,Henriksen +1-Wire,2013-05-07 03:03:00,
2013-05-06 23:08:00,45.7,45.7,30.16,SW,214,0.7,4.0,100,0.00,n/a,n/a,-99.99,Henriksen +1-Wire,2013-05-07 03:08:00,
2013-05-06 23:13:00,45.9,45.9,30.16,SSW,200,1.3,4.2,100,0.00,n/a,n/a,-99.99,Henriksen +1-Wire,2013-05-07 03:13:00,
2013-05-06 23:18:00,46.0,46.0,30.16,SSW,206,2.0,4.2,100,0.00,n/a,n/a,-99.99,Henriksen +1-Wire,2013-05-07 03:18:00,
2013-05-06 23:23:00,46.0,46.0,30.16,SSW,210,2.3,3.9,100,0.00,n/a,n/a,-99.99,Henriksen +1-Wire,2013-05-07 03:23:00,
2013-05-06 23:28:00,46.1,46.1,30.16,SSW,211,1.5,3.2,100,0.00,n/a,n/a,-99.99,Henriksen +1-Wire,2013-05-07 03:28:00,
2013-05-06 23:33:00,46.3,46.3,30.15,SSW,213,0.8,3.2,100,0.00,n/a,n/a,-99.99,Henriksen +1-Wire,2013-05-07 03:33:00,
2013-05-06 23:39:00,46.4,46.4,30.15,SSW,212,0.2,3.2,100,0.00,n/a,n/a,-99.99,Henriksen +1-Wire,2013-05-07 03:39:00,
2013-05-06 23:45:00,46.6,46.6,30.15,SSW,213,1.3,3.2,100,0.00,n/a,n/a,-99.99,Henriksen +1-Wire,2013-05-07 03:45:00,
2013-05-06 23:50:00,46.8,46.8,30.15,SSW,213,0.3,3.2,100,0.00,n/a,n/a,-99.99,Henriksen +1-Wire,2013-05-07 03:50:00,
2013-05-06 23:55:00,46.9,46.9,30.15,SSW,197,0.0,3.2,100,0.00,n/a,n/a,-99.99,Henriksen +1-Wire,2013-05-07 03:55:00,